Time;durP1;ratioP1;P1;durP2;ratioP2;P2;SDS_P1;SDS_P2;PMS_P1;PMS_P2;Temp;Humidity;BMP_temperature;BMP_pressure;BME280_temperature;BME280_humidity;BME280_pressure;Samples;Min_cycle;Max_cycle;Signal;HPM_P1;HPM_P2
2021/12/16 00:06:56;;;;;;;0.50;0.40;;;;;;;8.79;73.93;101460.09;101423;1317;139950;-77
2021/12/16 00:09:20;;;;;;;0.50;0.50;;;;;;;8.75;73.92;101458.86;101642;1318;109679;-77
2021/12/16 00:31:21;;;;;;;0.50;0.50;;;;;;;8.68;74.68;101452.86;102287;1317;140475;-78
2021/12/16 00:34:01;;;;;;;0.50;0.50;;;;;;;8.66;74.83;101452.14;101980;1316;110219;-77
2021/12/16 00:36:35;;;;;;;0.50;0.40;;;;;;;8.73;74.81;101450.73;102183;1318;138905;-77
2021/12/16 00:39:11;;;;;;;0.50;0.40;;;;;;;8.72;74.68;101450.73;102338;1316;95146;-76
2021/12/16 00:41:41;;;;;;;0.50;0.40;;;;;;;8.81;74.55;101445.58;102152;1317;140263;-77
2021/12/16 00:44:22;;;;;;;0.50;0.40;;;;;;;8.81;74.40;101447.70;102316;1316;109819;-76
2021/12/16 00:47:01;;;;;;;0.50;0.50;;;;;;;8.71;74.57;101446.84;102225;1316;140809;-77
2021/12/16 00:54:50;;;;;;;0.50;0.40;;;;;;;8.94;74.56;101440.04;102209;1317;139566;-77
2021/12/16 00:57:18;;;;;;;0.50;0.50;;;;;;;8.87;74.18;101433.52;102989;1316;95467;-77
2021/12/16 00:59:49;;;;;;;0.60;0.60;;;;;;;8.86;74.47;101432.10;102158;1317;140443;-77
2021/12/16 01:33:56;;;;;;;0.50;0.50;;;;;;;8.84;74.93;101416.16;102339;1317;95274;-76
2021/12/16 01:47:40;;;;;;;0.50;0.40;;;;;;;8.81;74.90;101393.86;102276;1318;109449;-77
2021/12/16 01:53:37;;;;;;;0.50;0.40;;;;;;;8.77;74.95;101393.70;102110;1322;95393;-77
2021/12/16 01:56:22;;;;;;;0.50;0.40;;;;;;;8.81;75.01;101397.40;102266;1317;140495;-77
2021/12/16 01:58:51;;;;;;;0.50;0.40;;;;;;;8.80;75.13;101396.88;102337;1317;109474;-77
2021/12/16 02:01:32;;;;;;;0.50;0.40;;;;;;;8.79;75.27;101401.48;102236;1318;140346;-77
2021/12/16 02:04:13;;;;;;;0.40;0.40;;;;;;;8.85;75.15;101397.75;102303;1318;95567;-78
2021/12/16 02:07:02;;;;;;;0.50;0.40;;;;;;;8.83;74.92;101398.98;102196;1319;138503;-76
2021/12/16 02:12:15;;;;;;;0.50;0.40;;;;;;;8.91;74.81;101407.13;102235;1318;140723;-77
2021/12/16 02:36:46;;;;;;;0.50;0.40;;;;;;;8.89;74.91;101417.21;102284;1317;140739;-77
2021/12/16 02:39:26;;;;;;;0.50;0.50;;;;;;;8.88;75.01;101413.33;102286;1318;95273;-77
2021/12/16 02:42:32;;;;;;;0.50;0.40;;;;;;;8.93;75.00;101413.31;102251;1319;109430;-77
2021/12/16 02:50:23;;;;;;;0.50;0.40;;;;;;;8.93;75.03;101417.91;102260;1318;141168;-77
2021/12/16 02:52:52;;;;;;;0.50;0.40;;;;;;;8.94;74.83;101411.52;102340;1318;109414;-77
2021/12/16 02:55:21;;;;;;;0.50;0.40;;;;;;;8.93;74.82;101414.55;102306;1317;139980;-78
2021/12/16 02:57:59;;;;;;;0.50;0.40;;;;;;;8.99;74.78;101410.63;102028;1318;95678;-78
2021/12/16 03:00:31;;;;;;;0.50;0.50;;;;;;;8.97;74.69;101410.11;101775;1317;140014;-77
2021/12/16 03:02:59;;;;;;;0.50;0.50;;;;;;;8.94;74.84;101408.88;101645;1318;108336;-77
2021/12/16 03:05:27;;;;;;;0.50;0.40;;;;;;;8.97;74.79;101411.89;101651;1317;110280;-77
2021/12/16 03:07:55;;;;;;;0.50;0.40;;;;;;;9.00;74.72;101410.63;101426;1316;139519;-77
2021/12/16 03:10:58;;;;;;;0.50;0.50;;;;;;;9.02;74.69;101410.45;101253;1316;95797;-77
2021/12/16 03:13:26;;;;;;;0.50;0.50;;;;;;;9.00;74.59;101413.64;101214;1316;139644;-77
2021/12/16 03:16:42;;;;;;;0.50;0.50;;;;;;;8.99;74.51;101416.30;101166;1314;111132;-78
2021/12/16 03:19:13;;;;;;;0.40;0.40;;;;;;;9.00;74.37;101419.13;101530;1317;140780;-77
2021/12/16 03:21:46;;;;;;;0.50;0.40;;;;;;;8.98;74.60;101420.02;101713;1316;95256;-77
2021/12/16 03:30:04;;;;;;;0.40;0.40;;;;;;;8.87;74.85;101415.61;102291;1318;95704;-77
2021/12/16 03:33:23;;;;;;;0.40;0.40;;;;;;;8.99;74.73;101415.94;102179;1317;141266;-77
2021/12/16 03:36:03;;;;;;;0.50;0.40;;;;;;;9.06;74.60;101414.14;102306;1318;109445;-77
2021/12/16 03:38:34;;;;;;;0.50;0.40;;;;;;;9.12;74.25;101414.66;102252;1317;140429;-78
2021/12/16 03:41:03;;;;;;;0.40;0.40;;;;;;;9.12;73.94;101413.41;102446;1317;95681;-78
2021/12/16 03:43:33;;;;;;;0.50;0.40;;;;;;;9.13;74.06;101414.30;102392;1318;139398;-78
2021/12/16 03:48:46;;;;;;;0.50;0.50;;;;;;;9.12;73.73;101413.59;102221;1317;138841;-78
2021/12/16 03:51:18;;;;;;;0.40;0.40;;;;;;;9.11;74.11;101409.16;102528;1316;95179;-78
2021/12/16 03:53:49;;;;;;;0.50;0.40;;;;;;;9.10;74.16;101409.35;102424;1320;95458;-76
2021/12/16 03:56:19;;;;;;;0.50;0.40;;;;;;;9.14;74.06;101409.70;102284;1318;140894;-77
2021/12/16 03:59:09;;;;;;;0.50;0.50;;;;;;;9.18;73.84;101406.84;102367;1316;108686;-76
2021/12/16 04:01:47;;;;;;;0.50;0.40;;;;;;;9.20;73.72;101408.95;102258;1318;140996;-77
2021/12/16 04:04:20;;;;;;;0.50;0.40;;;;;;;9.20;73.58;101405.06;102337;1319;95954;-77
2021/12/16 04:06:49;;;;;;;0.50;0.40;;;;;;;9.19;73.69;101405.95;102323;1316;139700;-77
2021/12/16 04:09:18;;;;;;;0.50;0.40;;;;;;;9.20;73.81;101399.57;102415;1317;111233;-77
2021/12/16 04:12:09;;;;;;;0.50;0.40;;;;;;;9.23;73.67;101398.50;102360;1318;95289;-77
2021/12/16 04:14:40;;;;;;;0.40;0.40;;;;;;;9.28;73.53;101396.88;102273;1317;140582;-77
2021/12/16 04:17:10;;;;;;;0.40;0.40;;;;;;;9.31;73.15;101399.52;102430;1318;109441;-76
2021/12/16 04:19:52;;;;;;;0.40;0.40;;;;;;;9.30;73.16;101395.45;102263;1318;140292;-77
2021/12/16 04:22:30;;;;;;;0.50;0.50;;;;;;;9.25;73.22;101392.11;102311;1317;95704;-76
2021/12/16 04:25:03;;;;;;;0.50;0.40;;;;;;;9.20;73.45;101388.58;102194;1318;140596;-77
2021/12/16 04:27:33;;;;;;;0.50;0.30;;;;;;;9.25;73.47;101388.20;102336;1321;108722;-77
2021/12/16 04:30:03;;;;;;;0.40;0.40;;;;;;;9.31;73.44;101386.92;102430;1317;110450;-77
2021/12/16 04:32:32;;;;;;;0.40;0.40;;;;;;;9.28;73.05;101382.52;102142;1317;140029;-76
2021/12/16 04:35:00;;;;;;;0.40;0.40;;;;;;;9.16;73.10;101386.47;102181;1319;95264;-77
2021/12/16 04:37:28;;;;;;;0.50;0.40;;;;;;;9.08;73.50;101385.27;102074;1318;140187;-76
2021/12/16 04:39:59;;;;;;;0.50;0.40;;;;;;;9.11;73.74;101380.65;102186;1318;110323;-76
2021/12/16 04:42:27;;;;;;;0.40;0.40;;;;;;;9.15;73.62;101378.50;102309;1318;95897;-77
2021/12/16 04:44:56;;;;;;;0.40;0.40;;;;;;;9.18;73.51;101377.77;102176;1318;141290;-77
2021/12/16 04:47:24;;;;;;;0.40;0.40;;;;;;;9.13;73.42;101376.55;102362;1318;108756;-77
2021/12/16 04:49:51;;;;;;;0.40;0.40;;;;;;;9.09;73.42;101374.10;102077;1322;141542;-77
2021/12/16 04:52:19;;;;;;;0.40;0.40;;;;;;;9.15;73.48;101375.30;102172;1321;95296;-77
2021/12/16 04:54:47;;;;;;;0.40;0.40;;;;;;;9.15;73.25;101371.23;102124;1318;140977;-78
2021/12/16 04:57:16;;;;;;;0.40;0.40;;;;;;;9.06;73.40;101370.05;102216;1320;109469;-77
2021/12/16 04:59:45;;;;;;;0.50;0.40;;;;;;;9.08;73.59;101364.71;102236;1318;110351;-77
2021/12/16 05:02:19;;;;;;;0.40;0.40;;;;;;;9.13;73.42;101361.68;102169;1318;140256;-77
2021/12/16 05:05:00;;;;;;;0.40;0.40;;;;;;;9.14;73.06;101366.10;102259;1321;96755;-77
2021/12/16 05:07:29;;;;;;;0.50;0.40;;;;;;;9.02;73.28;101367.92;102120;1318;140323;-77
2021/12/16 05:10:18;;;;;;;0.50;0.40;;;;;;;8.96;73.42;101363.35;102239;1319;110279;-77
2021/12/16 05:12:56;;;;;;;0.50;0.40;;;;;;;8.92;73.77;101362.13;102157;1319;139890;-78
2021/12/16 05:15:31;;;;;;;0.50;0.40;;;;;;;8.91;73.75;101367.80;102261;1319;95086;-77
2021/12/16 05:18:04;;;;;;;0.50;0.40;;;;;;;8.95;73.74;101369.73;101442;1320;109392;-77
2021/12/16 05:20:35;;;;;;;0.40;0.40;;;;;;;8.96;73.52;101367.06;101109;1320;140363;-77
2021/12/16 05:28:26;;;;;;;0.50;0.40;;;;;;;8.92;73.67;101373.46;101042;1320;109474;-77
2021/12/16 05:30:55;;;;;;;0.50;0.50;;;;;;;8.89;73.77;101373.47;100985;1320;141181;-77
2021/12/16 05:33:24;;;;;;;0.50;0.50;;;;;;;8.86;73.71;101374.90;101438;1319;96498;-77
2021/12/16 05:35:54;;;;;;;0.50;0.40;;;;;;;8.81;73.76;101374.73;101613;1319;95797;-77
2021/12/16 05:38:23;;;;;;;0.50;0.40;;;;;;;8.83;74.11;101371.20;102016;1319;140123;-77
2021/12/16 05:40:52;;;;;;;0.50;0.40;;;;;;;8.90;73.87;101373.11;102274;1321;110957;-77
2021/12/16 05:43:28;;;;;;;0.40;0.40;;;;;;;8.95;73.61;101375.94;102063;1318;140827;-77
2021/12/16 05:45:57;;;;;;;0.40;0.40;;;;;;;8.97;73.71;101373.27;102189;1319;95719;-77
2021/12/16 05:48:36;;;;;;;0.50;0.40;;;;;;;8.96;73.55;101375.58;102146;1316;109300;-78
2021/12/16 05:51:09;;;;;;;0.50;0.40;;;;;;;8.89;73.69;101367.80;102082;1318;139766;-78
2021/12/16 05:53:37;;;;;;;0.50;0.40;;;;;;;8.83;73.88;101363.92;102250;1319;95142;-78
2021/12/16 05:56:11;;;;;;;0.40;0.40;;;;;;;8.82;73.98;101366.59;102127;1318;140153;-77
2021/12/16 05:58:40;;;;;;;0.40;0.40;;;;;;;8.82;73.81;101366.42;102303;1319;141541;-77
2021/12/16 06:01:18;;;;;;;0.40;0.40;;;;;;;8.83;73.99;101369.42;102084;1318;138889;-76
2021/12/16 06:03:47;;;;;;;0.50;0.40;;;;;;;8.82;74.00;101369.95;102187;1319;95422;-77
2021/12/16 06:06:15;;;;;;;0.50;0.50;;;;;;;8.79;73.96;101371.38;102129;1320;95490;-77
2021/12/16 06:08:45;;;;;;;0.40;0.40;;;;;;;8.78;74.11;101365.55;102109;1319;139214;-77
2021/12/16 06:14:07;;;;;;;0.40;0.40;;;;;;;8.80;73.95;101362.88;102194;1320;139715;-77
2021/12/16 06:22:35;;;;;;;0.50;0.50;;;;;;;8.75;74.19;101367.85;102243;1318;110703;-77
2021/12/16 06:27:54;;;;;;;0.50;0.40;;;;;;;8.88;73.91;101373.30;102306;1319;95316;-77
2021/12/16 06:30:29;;;;;;;0.50;0.40;;;;;;;8.91;73.91;101377.72;102216;1320;109783;-77
2021/12/16 06:32:57;;;;;;;0.50;0.40;;;;;;;8.93;73.66;101381.25;102269;1317;139116;-77
2021/12/16 06:35:25;;;;;;;0.50;0.50;;;;;;;8.84;73.75;101377.92;102294;1318;95533;-77
2021/12/16 06:37:54;;;;;;;0.50;0.40;;;;;;;8.74;73.94;101381.13;102123;1321;140490;-77
2021/12/16 06:40:28;;;;;;;0.50;0.50;;;;;;;8.80;74.15;101383.23;102202;1320;109448;-76
2021/12/16 06:43:18;;;;;;;0.50;0.50;;;;;;;8.81;73.82;101382.35;102199;1320;140874;-77
2021/12/16 06:45:49;;;;;;;0.50;0.50;;;;;;;8.74;73.90;101389.83;102261;1319;95959;-77
2021/12/16 06:48:23;;;;;;;0.50;0.50;;;;;;;8.77;73.99;101393.70;102252;1318;95207;-77
2021/12/16 06:53:27;;;;;;;0.50;0.40;;;;;;;8.78;74.34;101393.69;102128;1320;109834;-77
2021/12/16 06:56:10;;;;;;;0.50;0.40;;;;;;;8.80;74.27;101397.41;102153;1319;140670;-77
2021/12/16 06:58:48;;;;;;;0.50;0.50;;;;;;;8.89;74.01;101398.80;102347;1318;95667;-78
2021/12/16 07:01:37;;;;;;;0.50;0.50;;;;;;;8.86;73.76;101398.45;101963;1317;139942;-77
2021/12/16 07:04:08;;;;;;;0.50;0.50;;;;;;;8.80;74.21;101392.63;102276;1318;110304;-78
2021/12/16 07:06:39;;;;;;;0.50;0.40;;;;;;;8.78;74.23;101392.10;102421;1318;95644;-78
2021/12/16 07:09:13;;;;;;;0.40;0.40;;;;;;;8.83;74.23;101388.02;102393;1318;139099;-78
2021/12/16 07:11:48;;;;;;;0.40;0.40;;;;;;;8.85;74.31;101388.89;102438;1317;109554;-78
2021/12/16 07:14:17;;;;;;;0.50;0.40;;;;;;;8.94;74.12;101385.32;102291;1316;140413;-78
2021/12/16 07:16:48;;;;;;;0.40;0.40;;;;;;;9.01;73.92;101381.05;102415;1320;95784;-78
2021/12/16 07:19:16;;;;;;;0.50;0.40;;;;;;;9.05;73.77;101382.45;102509;1316;139045;-78
2021/12/16 07:21:44;;;;;;;0.50;0.40;;;;;;;8.99;73.71;101382.82;102220;1320;108678;-77
2021/12/16 07:24:16;;;;;;;0.50;0.50;;;;;;;8.98;74.02;101380.88;102225;1318;109673;-77
2021/12/16 07:26:44;;;;;;;0.50;0.40;;;;;;;8.99;73.98;101373.25;102114;1319;139598;-78
2021/12/16 07:29:13;;;;;;;0.50;0.40;;;;;;;9.09;74.07;101370.73;102401;1323;95821;-76
2021/12/16 07:31:40;;;;;;;0.40;0.40;;;;;;;9.15;73.59;101367.88;102225;1317;140318;-77
2021/12/16 07:34:10;;;;;;;0.50;0.40;;;;;;;9.13;73.55;101364.16;102283;1320;110326;-78
2021/12/16 07:36:40;;;;;;;0.50;0.40;;;;;;;9.10;73.65;101364.17;102464;1317;95265;-78
2021/12/16 07:39:13;;;;;;;0.40;0.40;;;;;;;9.10;73.53;101368.78;102627;1319;139754;-78
2021/12/16 07:41:46;;;;;;;0.40;0.40;;;;;;;9.07;73.71;101367.73;102982;1316;108532;-78
2021/12/16 07:44:14;;;;;;;0.40;0.40;;;;;;;9.01;73.82;101366.88;102284;1317;140226;-77
2021/12/16 07:46:48;;;;;;;0.50;0.40;;;;;;;9.02;73.98;101369.70;102363;1316;95273;-77
2021/12/16 07:49:22;;;;;;;0.50;0.40;;;;;;;9.07;74.02;101367.91;102302;1317;139016;-77
2021/12/16 07:51:50;;;;;;;0.50;0.40;;;;;;;9.12;73.78;101367.00;102279;1317;109581;-77
2021/12/16 07:54:19;;;;;;;0.50;0.40;;;;;;;9.12;73.89;101367.00;102296;1320;110558;-77
2021/12/16 07:56:48;;;;;;;0.40;0.40;;;;;;;9.09;73.90;101362.05;102257;1316;139198;-78
2021/12/16 07:59:16;;;;;;;0.50;0.40;;;;;;;8.99;73.97;101356.26;102301;1316;96103;-77
2021/12/16 08:01:45;;;;;;;0.50;0.40;;;;;;;8.95;74.42;101356.44;102309;1318;140588;-78
2021/12/16 08:04:22;;;;;;;0.50;0.40;;;;;;;8.91;74.40;101359.66;102272;1316;110185;-77
2021/12/16 08:06:52;;;;;;;0.40;0.40;;;;;;;8.93;74.78;101365.84;102254;1317;140990;-77
2021/12/16 08:09:20;;;;;;;0.40;0.40;;;;;;;9.01;74.40;101373.60;102348;1319;95204;-78
2021/12/16 08:11:50;;;;;;;0.40;0.40;;;;;;;9.07;74.40;101373.23;102408;1323;107702;-78
2021/12/16 08:14:18;;;;;;;0.50;0.50;;;;;;;9.04;74.28;101375.36;102261;1318;140161;-78
2021/12/16 08:16:47;;;;;;;0.50;0.40;;;;;;;9.02;74.39;101376.61;102631;1320;95717;-77
2021/12/16 08:19:15;;;;;;;0.50;0.40;;;;;;;8.99;74.42;101377.67;102175;1316;139947;-77
2021/12/16 08:21:43;;;;;;;0.40;0.40;;;;;;;8.97;74.52;101382.30;102264;1314;109563;-77
2021/12/16 08:24:14;;;;;;;0.40;0.40;;;;;;;9.00;74.70;101381.75;102317;1316;110593;-77
2021/12/16 08:26:44;;;;;;;0.50;0.40;;;;;;;8.97;74.78;101378.77;102229;1318;140099;-78
2021/12/16 08:29:12;;;;;;;0.40;0.40;;;;;;;8.94;74.95;101373.09;102354;1315;96565;-77
2021/12/16 08:31:40;;;;;;;0.40;0.40;;;;;;;8.92;75.04;101369.21;102324;1318;140537;-78
2021/12/16 08:34:08;;;;;;;0.50;0.40;;;;;;;8.92;75.11;101369.21;102367;1317;110518;-78
2021/12/16 08:36:36;;;;;;;0.40;0.40;;;;;;;8.96;75.16;101376.99;102423;1316;96248;-77
2021/12/16 08:39:07;;;;;;;0.40;0.40;;;;;;;8.92;75.28;101383.55;102272;1319;139034;-77
2021/12/16 08:41:39;;;;;;;0.50;0.40;;;;;;;8.87;75.33;101389.61;102382;1319;109385;-78
2021/12/16 08:44:07;;;;;;;0.50;0.40;;;;;;;8.87;75.55;101387.64;102276;1316;139074;-78
2021/12/16 08:46:38;;;;;;;0.40;0.40;;;;;;;8.94;75.50;101387.81;102444;1318;95739;-78
2021/12/16 08:49:06;;;;;;;0.40;0.40;;;;;;;9.07;75.29;101389.70;102347;1316;140336;-78
2021/12/16 08:51:39;;;;;;;0.40;0.40;;;;;;;9.05;74.98;101393.08;102315;1316;109442;-79
2021/12/16 08:54:07;;;;;;;0.40;0.40;;;;;;;9.07;75.12;101399.80;102281;1317;110809;-78
2021/12/16 08:56:35;;;;;;;0.40;0.40;;;;;;;9.08;75.00;101400.33;102213;1318;140512;-77
2021/12/16 08:59:04;;;;;;;0.40;0.40;;;;;;;9.07;75.20;101394.85;102446;1317;95774;-78
2021/12/16 09:01:36;;;;;;;0.40;0.40;;;;;;;9.07;75.01;101399.08;102811;1318;139236;-78
2021/12/16 09:04:04;;;;;;;0.50;0.40;;;;;;;9.02;75.24;101394.50;102590;1318;109148;-78
2021/12/16 09:06:33;;;;;;;0.40;0.40;;;;;;;9.00;75.28;101390.95;102622;1317;95230;-78
2021/12/16 09:09:02;;;;;;;0.40;0.40;;;;;;;8.94;75.48;101385.48;102355;1317;140704;-78
2021/12/16 09:11:34;;;;;;;0.40;0.40;;;;;;;8.97;75.56;101384.08;102263;1319;106830;-77
2021/12/16 09:14:02;;;;;;;0.50;0.40;;;;;;;8.99;75.74;101387.96;102377;1316;140246;-78
2021/12/16 09:16:33;;;;;;;0.50;0.50;;;;;;;8.96;75.56;101382.30;102560;1317;95583;-79
2021/12/16 09:19:04;;;;;;;0.40;0.40;;;;;;;8.92;75.73;101375.95;102192;1317;139110;-78
2021/12/16 09:21:35;;;;;;;0.40;0.40;;;;;;;8.88;76.04;101369.22;102176;1317;108124;-78
2021/12/16 09:24:04;;;;;;;0.40;0.40;;;;;;;8.89;75.97;101368.52;102285;1318;110139;-78
2021/12/16 09:26:32;;;;;;;0.50;0.40;;;;;;;8.91;76.09;101367.09;102172;1316;140286;-79
2021/12/16 09:29:01;;;;;;;0.40;0.40;;;;;;;8.98;75.93;101374.67;102021;1315;95244;-78
2021/12/16 09:31:29;;;;;;;0.40;0.40;;;;;;;9.06;76.00;101370.40;101942;1318;140673;-77
2021/12/16 09:34:04;;;;;;;0.50;0.50;;;;;;;9.01;75.74;101367.06;102060;1316;110835;-77
2021/12/16 09:36:34;;;;;;;0.40;0.40;;;;;;;8.93;76.00;101366.02;102072;1318;95604;-77
2021/12/16 09:39:05;;;;;;;0.50;0.40;;;;;;;8.96;76.20;101365.30;102148;1317;139118;-77
2021/12/16 09:41:33;;;;;;;0.50;0.40;;;;;;;9.03;75.97;101364.91;101900;1318;109547;-77
2021/12/16 09:44:01;;;;;;;0.40;0.40;;;;;;;9.09;75.79;101363.83;101998;1315;140827;-77
2021/12/16 09:46:30;;;;;;;0.50;0.40;;;;;;;9.10;75.83;101365.95;102007;1321;96152;-77
2021/12/16 09:48:59;;;;;;;0.40;0.40;;;;;;;9.15;75.77;101373.17;101837;1317;140788;-78
2021/12/16 09:51:31;;;;;;;0.40;0.40;;;;;;;9.21;75.56;101370.50;101646;1318;109519;-77
2021/12/16 09:54:04;;;;;;;0.50;0.40;;;;;;;9.14;75.70;101367.88;101610;1316;109447;-76
2021/12/16 09:56:32;;;;;;;0.50;0.40;;;;;;;9.14;75.76;101376.55;101471;1316;141103;-78
2021/12/16 09:59:02;;;;;;;0.50;0.40;;;;;;;9.16;75.74;101378.49;101405;1320;95910;-77
2021/12/16 10:01:31;;;;;;;0.50;0.40;;;;;;;9.18;75.75;101382.75;101279;1320;139905;-76
2021/12/16 10:04:03;;;;;;;0.40;0.40;;;;;;;9.25;75.60;101381.28;101493;1318;110326;-77
2021/12/16 10:06:34;;;;;;;0.40;0.40;;;;;;;9.30;75.40;101385.52;101524;1316;95261;-76
2021/12/16 10:09:05;;;;;;;0.50;0.40;;;;;;;9.34;75.14;101388.52;101317;1318;139880;-77
2021/12/16 10:11:35;;;;;;;0.40;0.40;;;;;;;9.35;75.13;101386.92;101552;1316;109294;-77
2021/12/16 10:14:18;;;;;;;0.40;0.40;;;;;;;9.31;75.32;101381.25;101342;1320;139930;-77
2021/12/16 10:19:35;;;;;;;0.40;0.40;;;;;;;9.28;75.26;101373.65;101610;1321;139485;-77
2021/12/16 10:22:23;;;;;;;0.50;0.40;;;;;;;9.30;75.31;101373.83;101774;1318;107419;-78
2021/12/16 10:24:55;;;;;;;0.40;0.40;;;;;;;9.33;75.38;101372.74;101948;1318;140056;-78
2021/12/16 10:27:27;;;;;;;0.40;0.40;;;;;;;9.35;75.23;101372.55;102075;1316;96101;-77
2021/12/16 10:30:04;;;;;;;0.50;0.40;;;;;;;9.40;75.06;101374.65;102205;1319;95468;-77
2021/12/16 10:32:46;;;;;;;0.40;0.40;;;;;;;9.41;75.16;101360.46;102148;1319;140301;-78
2021/12/16 10:35:30;;;;;;;0.40;0.40;;;;;;;9.42;74.99;101351.95;102253;1321;110313;-78
2021/12/16 10:38:04;;;;;;;0.40;0.40;;;;;;;9.42;74.86;101343.98;102159;1318;139288;-78
2021/12/16 10:40:53;;;;;;;0.50;0.50;;;;;;;9.39;75.07;101343.11;102606;1314;95178;-79
2021/12/16 10:43:42;;;;;;;0.50;0.40;;;;;;;9.40;75.14;101341.33;102365;1316;138800;-78
2021/12/16 10:46:19;;;;;;;0.50;0.40;;;;;;;9.42;75.11;101349.47;102516;1316;110363;-77
2021/12/16 10:48:51;;;;;;;0.40;0.40;;;;;;;9.36;75.05;101359.61;102166;1316;142431;-77
2021/12/16 10:51:37;;;;;;;0.50;0.50;;;;;;;9.30;75.41;101357.16;102233;1318;95200;-76
2021/12/16 10:54:12;;;;;;;0.50;0.40;;;;;;;9.36;75.36;101359.44;102310;1316;109932;-77
2021/12/16 10:56:58;;;;;;;0.40;0.40;;;;;;;9.40;75.44;101355.49;102131;1320;142127;-78
2021/12/16 10:59:32;;;;;;;0.40;0.40;;;;;;;9.42;75.07;101355.14;102269;1317;95471;-78
2021/12/16 11:02:07;;;;;;;0.40;0.30;;;;;;;9.45;75.18;101353.71;102155;1317;140657;-77
2021/12/16 11:04:43;;;;;;;0.40;0.40;;;;;;;9.49;74.96;101353.33;102290;1318;109484;-77
2021/12/16 11:07:27;;;;;;;0.40;0.40;;;;;;;9.49;74.83;101351.56;102139;1316;142449;-78
2021/12/16 11:10:15;;;;;;;0.40;0.40;;;;;;;9.51;74.97;101346.92;102220;1318;95261;-77
2021/12/16 11:12:56;;;;;;;0.40;0.40;;;;;;;9.47;74.87;101362.03;102299;1318;96332;-77
2021/12/16 11:15:33;;;;;;;0.50;0.40;;;;;;;9.33;75.10;101356.62;102160;1317;140323;-78
2021/12/16 11:18:10;;;;;;;0.50;0.40;;;;;;;9.30;75.46;101345.64;102135;1316;109362;-78
2021/12/16 11:20:58;;;;;;;0.40;0.40;;;;;;;9.34;75.42;101336.75;102184;1318;139973;-78
2021/12/16 11:23:37;;;;;;;0.40;0.30;;;;;;;9.39;75.35;101334.23;102456;1316;95231;-78
2021/12/16 11:26:14;;;;;;;0.40;0.40;;;;;;;9.53;75.06;101331.31;102225;1314;140847;-77
2021/12/16 11:28:50;;;;;;;0.40;0.40;;;;;;;9.56;74.59;101325.27;102462;1317;110529;-78
2021/12/16 11:31:29;;;;;;;0.50;0.40;;;;;;;9.45;74.58;101325.87;102129;1318;142164;-78
2021/12/16 11:34:07;;;;;;;0.50;0.40;;;;;;;9.39;74.82;101332.30;102276;1315;95582;-78
2021/12/16 11:36:40;;;;;;;0.40;0.40;;;;;;;9.43;74.87;101329.98;102383;1318;109256;-77
2021/12/16 11:39:24;;;;;;;0.40;0.40;;;;;;;9.41;74.99;101329.80;102178;1318;139432;-77
2021/12/16 11:41:56;;;;;;;0.40;0.30;;;;;;;9.42;74.88;101331.03;102288;1316;95282;-78
2021/12/16 11:44:29;;;;;;;0.40;0.40;;;;;;;9.46;74.86;101336.68;102254;1318;140299;-79
2021/12/16 11:47:22;;;;;;;0.40;0.40;;;;;;;9.46;74.88;101339.16;102645;1316;109875;-78
2021/12/16 11:49:57;;;;;;;0.50;0.40;;;;;;;9.48;74.77;101336.84;102207;1318;142280;-77
2021/12/16 11:52:27;;;;;;;0.40;0.40;;;;;;;9.48;74.64;101332.95;102352;1316;96118;-78
2021/12/16 11:55:13;;;;;;;0.40;0.40;;;;;;;9.49;74.79;101325.14;102350;1317;95246;-77
2021/12/16 11:57:44;;;;;;;0.40;0.40;;;;;;;9.51;74.69;101330.27;102004;1321;139877;-77
2021/12/16 12:00:19;;;;;;;0.40;0.40;;;;;;;9.60;74.47;101334.10;102224;1316;111684;-78
2021/12/16 12:02:55;;;;;;;0.40;0.40;;;;;;;9.68;74.35;101332.63;102020;1316;138712;-77
2021/12/16 12:05:35;;;;;;;0.40;0.40;;;;;;;9.73;74.10;101325.49;102188;1319;95257;-77
2021/12/16 12:08:20;;;;;;;0.50;0.40;;;;;;;9.66;74.09;101328.02;102163;1317;140384;-78
2021/12/16 12:11:06;;;;;;;0.40;0.40;;;;;;;9.63;74.00;101327.52;102247;1317;110371;-78
2021/12/16 12:13:41;;;;;;;0.40;0.40;;;;;;;9.61;74.09;101320.45;102403;1317;141374;-78
2021/12/16 12:16:10;;;;;;;0.40;0.30;;;;;;;9.61;74.20;101330.02;102628;1314;95258;-78
2021/12/16 12:18:47;;;;;;;0.40;0.40;;;;;;;9.63;74.09;101334.27;102487;1317;109380;-78
2021/12/16 12:21:28;;;;;;;0.40;0.40;;;;;;;9.66;73.92;101337.97;102098;1317;139917;-77
2021/12/16 12:24:07;;;;;;;0.40;0.40;;;;;;;9.63;73.94;101339.75;102269;1318;95601;-78
2021/12/16 12:26:56;;;;;;;0.40;0.30;;;;;;;9.67;73.78;101339.55;102256;1314;140316;-77
2021/12/16 12:29:30;;;;;;;0.40;0.30;;;;;;;9.66;73.34;101329.63;102082;1317;109419;-78
2021/12/16 12:32:06;;;;;;;0.40;0.30;;;;;;;9.67;73.49;101326.44;102196;1316;140243;-76
2021/12/16 12:34:36;;;;;;;0.40;0.40;;;;;;;9.66;72.88;101326.79;102161;1316;95286;-77
2021/12/16 12:37:07;;;;;;;0.40;0.40;;;;;;;9.57;72.78;101330.93;102249;1317;95298;-77
2021/12/16 12:39:42;;;;;;;0.50;0.50;;;;;;;9.55;72.79;101335.91;102234;1318;140241;-77
2021/12/16 12:42:11;;;;;;;0.50;0.40;;;;;;;9.52;72.47;101337.36;102255;1316;108718;-77
2021/12/16 12:44:40;;;;;;;0.40;0.30;;;;;;;9.52;72.25;101338.23;102051;1318;139592;-77
2021/12/16 12:47:12;;;;;;;0.50;0.40;;;;;;;9.55;72.06;101335.20;102160;1316;95745;-77
2021/12/16 12:49:41;;;;;;;0.50;0.40;;;;;;;9.52;72.13;101328.84;102116;1317;140882;-77
2021/12/16 12:52:30;;;;;;;0.40;0.30;;;;;;;9.52;72.36;101325.30;102178;1316;108814;-77
2021/12/16 12:55:02;;;;;;;0.50;0.40;;;;;;;9.52;72.56;101321.05;102204;1317;95723;-77
2021/12/16 12:57:34;;;;;;;0.40;0.40;;;;;;;9.50;72.19;101313.59;102111;1317;140022;-77
2021/12/16 13:00:08;;;;;;;0.40;0.30;;;;;;;9.47;71.95;101313.46;102157;1316;109493;-77
2021/12/16 13:02:38;;;;;;;0.40;0.40;;;;;;;9.41;71.71;101308.34;102058;1318;139764;-78
2021/12/16 13:05:17;;;;;;;0.50;0.40;;;;;;;9.39;71.79;101313.16;102260;1316;95269;-77
2021/12/16 13:07:58;;;;;;;0.40;0.40;;;;;;;9.42;71.12;101325.73;102071;1314;140932;-77
2021/12/16 13:10:47;;;;;;;0.50;0.40;;;;;;;9.34;70.68;101337.29;102343;1318;107829;-77
2021/12/16 13:27:37;;;;;;;0.40;0.40;;;;;;;9.32;70.54;101328.78;101996;1319;140263;-77
2021/12/16 13:32:43;;;;;;;0.50;0.40;;;;;;;9.36;70.49;101323.63;102045;1318;139401;-77
2021/12/16 13:35:33;;;;;;;0.50;0.50;;;;;;;9.40;70.03;101326.98;102116;1316;110925;-77
2021/12/16 13:38:08;;;;;;;0.50;0.40;;;;;;;9.34;69.67;101330.55;102041;1317;141520;-77
2021/12/16 13:40:39;;;;;;;0.40;0.40;;;;;;;9.27;69.49;101333.08;102189;1317;95826;-78
2021/12/16 13:43:19;;;;;;;0.50;0.40;;;;;;;9.26;69.90;101329.17;102025;1316;109620;-77
2021/12/16 14:04:37;;;;;;;0.50;0.40;;;;;;;8.99;69.92;101321.01;102111;1321;141110;-77
2021/12/16 14:06:59;;;;;;;0.50;0.40;;;;;;;9.00;70.03;101322.95;102071;1316;109286;-76
2021/12/16 14:09:33;;;;;;;0.50;0.40;;;;;;;9.00;70.20;101328.27;102095;1318;141109;-76
2021/12/16 14:23:51;;;;;;;0.40;0.40;;;;;;;9.20;70.10;101323.55;101783;1318;95817;-76
2021/12/16 14:37:29;;;;;;;0.50;0.40;;;;;;;9.15;69.76;101417.12;102091;1318;95280;-76
2021/12/16 14:45:31;;;;;;;0.50;0.40;;;;;;;9.04;70.33;101421.95;102108;1316;140603;-76
2021/12/16 14:48:21;;;;;;;0.40;0.40;;;;;;;9.00;70.24;101423.02;102157;1317;95248;-76
2021/12/16 14:50:54;;;;;;;0.50;0.40;;;;;;;8.99;69.85;101421.62;102056;1317;139853;-76
2021/12/16 14:53:27;;;;;;;0.40;0.40;;;;;;;9.01;69.82;101410.80;102276;1316;110295;-76
2021/12/16 14:55:59;;;;;;;0.40;0.40;;;;;;;9.00;69.42;101422.85;102126;1317;142490;-76
2021/12/16 14:58:27;;;;;;;0.60;0.60;;;;;;;8.97;69.66;101427.65;102272;1318;95704;-76
2021/12/16 15:01:03;;;;;;;0.50;0.50;;;;;;;9.01;69.94;101429.92;102078;1318;108393;-77
2021/12/16 15:03:36;;;;;;;0.40;0.40;;;;;;;9.00;69.87;101422.84;102101;1318;140651;-77
2021/12/16 15:06:13;;;;;;;0.40;0.40;;;;;;;9.01;69.88;101412.39;102173;1317;95454;-76
2021/12/16 15:11:36;;;;;;;0.50;0.50;;;;;;;9.03;69.81;101391.48;102139;1318;109775;-76
2021/12/16 15:14:17;;;;;;;0.40;0.40;;;;;;;9.09;69.36;101388.80;102105;1318;140323;-77